Time;durP1;ratioP1;P1;durP2;ratioP2;P2;SDS_P1;SDS_P2;PMS_P1;PMS_P2;Temp;Humidity;BMP_temperature;BMP_pressure;BME280_temperature;BME280_humidity;BME280_pressure;Samples;Min_cycle;Max_cycle;Signal;HPM_P1;HPM_P2
2021/07/05 00:01:28;;;;;;;530.50;426.75;;;;;;;;;;4936335;29;20028;-76
2021/07/05 00:03:54;;;;;;;533.22;425.88;;;;;;;;;;4953610;28;20030;-76
2021/07/05 00:06:20;;;;;;;537.15;428.42;;;;;;;;;;4929454;29;20050;-77
2021/07/05 00:08:46;;;;;;;543.47;438.40;;;;;;;;;;4929666;29;20070;-76
2021/07/05 00:11:12;;;;;;;540.95;431.48;;;;;;;;;;4945641;28;20028;-76
2021/07/05 00:13:38;;;;;;;538.78;427.15;;;;;;;;;;4927192;29;21845;-76
2021/07/05 00:16:04;;;;;;;542.13;435.70;;;;;;;;;;4947293;28;20046;-76
2021/07/05 00:18:30;;;;;;;548.65;433.58;;;;;;;;;;4951073;28;20043;-76
2021/07/05 00:20:57;;;;;;;542.08;434.42;;;;;;;;;;4947770;28;20036;-76
2021/07/05 00:23:35;;;;;;;545.00;445.27;;;;;;;;;;4928670;29;20038;-77
2021/07/05 00:26:01;;;;;;;558.55;446.83;;;;;;;;;;4947534;29;20019;-76
2021/07/05 00:28:27;;;;;;;558.92;455.85;;;;;;;;;;4948429;28;20028;-76
2021/07/05 00:30:53;;;;;;;578.28;467.63;;;;;;;;;;4935865;29;20032;-76
2021/07/05 00:33:19;;;;;;;575.55;466.05;;;;;;;;;;4948762;29;20034;-76
2021/07/05 00:35:46;;;;;;;606.03;486.27;;;;;;;;;;4934024;29;20483;-76
2021/07/05 00:38:12;;;;;;;656.15;535.88;;;;;;;;;;4937929;29;21746;-76
2021/07/05 00:40:38;;;;;;;621.22;507.33;;;;;;;;;;4929018;28;20033;-77
2021/07/05 00:43:05;;;;;;;594.95;476.80;;;;;;;;;;4949616;28;20033;-75
2021/07/05 00:45:31;;;;;;;658.17;546.35;;;;;;;;;;4947862;29;20036;-76
2021/07/05 00:47:57;;;;;;;643.88;521.78;;;;;;;;;;4949814;29;20428;-76
2021/07/05 00:50:25;;;;;;;729.53;623.40;;;;;;;;;;4935451;29;20062;-76
2021/07/05 00:52:53;;;;;;;634.08;510.70;;;;;;;;;;4952427;28;20579;-75
2021/07/05 00:55:19;;;;;;;646.00;532.95;;;;;;;;;;4934747;29;20015;-76
2021/07/05 00:58:04;;;;;;;623.30;504.63;;;;;;;;;;4942782;28;20026;-76
2021/07/05 01:00:30;;;;;;;649.67;533.47;;;;;;;;;;4929881;29;20251;-76
2021/07/05 01:02:56;;;;;;;633.03;514.40;;;;;;;;;;4928838;29;20042;-76
2021/07/05 01:05:23;;;;;;;613.63;495.42;;;;;;;;;;4928636;28;20050;-76
2021/07/05 01:07:49;;;;;;;617.15;497.10;;;;;;;;;;4927270;29;20150;-75
2021/07/05 01:10:17;;;;;;;651.13;539.67;;;;;;;;;;4932498;29;20023;-76
2021/07/05 01:12:45;;;;;;;664.05;550.40;;;;;;;;;;4949110;28;21996;-76
2021/07/05 01:15:13;;;;;;;676.60;564.90;;;;;;;;;;4932825;29;20034;-76
2021/07/05 01:17:41;;;;;;;584.22;465.80;;;;;;;;;;4950732;28;20035;-76
2021/07/05 01:20:08;;;;;;;612.08;499.77;;;;;;;;;;4938110;29;20030;-76
2021/07/05 01:22:37;;;;;;;621.75;506.73;;;;;;;;;;4952304;28;20023;-77
2021/07/05 01:25:03;;;;;;;635.75;524.22;;;;;;;;;;4951988;28;20026;-76
2021/07/05 01:27:29;;;;;;;679.25;566.63;;;;;;;;;;4935112;29;20601;-77
2021/07/05 01:29:55;;;;;;;739.53;634.15;;;;;;;;;;4950240;28;20090;-77
2021/07/05 01:32:21;;;;;;;760.67;663.08;;;;;;;;;;4935016;28;20354;-77
2021/07/05 01:35:03;;;;;;;698.40;575.95;;;;;;;;;;4932339;29;20098;-76
2021/07/05 01:37:29;;;;;;;757.17;648.35;;;;;;;;;;4928287;29;20091;-76
2021/07/05 01:39:55;;;;;;;735.15;641.65;;;;;;;;;;4930442;28;20850;-77
2021/07/05 01:42:21;;;;;;;716.78;611.40;;;;;;;;;;4929522;29;20071;-76
2021/07/05 01:44:47;;;;;;;682.40;565.65;;;;;;;;;;4932046;28;20513;-76
2021/07/05 01:47:13;;;;;;;696.95;570.35;;;;;;;;;;4939916;28;20064;-76
2021/07/05 01:49:44;;;;;;;719.72;603.47;;;;;;;;;;4939371;29;20023;-76
2021/07/05 01:52:10;;;;;;;824.45;665.70;;;;;;;;;;4929600;29;20047;-76
2021/07/05 01:54:36;;;;;;;865.40;750.15;;;;;;;;;;4933471;28;20039;-76
2021/07/05 01:57:05;;;;;;;824.70;634.97;;;;;;;;;;4934001;29;20226;-77
2021/07/05 01:59:31;;;;;;;1143.43;999.90;;;;;;;;;;4951434;28;20031;-75
2021/07/05 02:01:57;;;;;;;811.35;720.28;;;;;;;;;;4925333;29;20031;-74
2021/07/05 02:04:27;;;;;;;821.88;653.17;;;;;;;;;;4948716;29;20050;-75
2021/07/05 02:06:53;;;;;;;840.05;748.03;;;;;;;;;;4949185;28;20563;-74
2021/07/05 02:09:24;;;;;;;791.15;698.17;;;;;;;;;;4924583;28;20072;-74
2021/07/05 02:11:50;;;;;;;1101.85;990.28;;;;;;;;;;4945067;28;20039;-74
2021/07/05 02:14:16;;;;;;;1009.47;905.30;;;;;;;;;;4927837;28;20027;-75
2021/07/05 02:16:41;;;;;;;806.33;519.65;;;;;;;;;;4931968;29;20035;-74
2021/07/05 02:19:07;;;;;;;827.33;582.40;;;;;;;;;;4941930;28;20028;-74
2021/07/05 02:21:33;;;;;;;843.88;608.72;;;;;;;;;;4916693;29;20049;-74
2021/07/05 02:23:59;;;;;;;984.55;882.17;;;;;;;;;;4926808;28;20035;-74
2021/07/05 02:26:27;;;;;;;838.45;591.38;;;;;;;;;;4938205;28;20059;-74
2021/07/05 02:28:53;;;;;;;848.28;639.17;;;;;;;;;;4944733;28;20023;-75
2021/07/05 02:31:22;;;;;;;812.03;543.72;;;;;;;;;;4938712;28;20031;-75
2021/07/05 02:33:48;;;;;;;685.33;552.40;;;;;;;;;;4942223;28;20051;-74
2021/07/05 02:36:14;;;;;;;683.28;561.58;;;;;;;;;;4948901;28;20656;-75
2021/07/05 02:38:40;;;;;;;850.35;758.63;;;;;;;;;;4931460;29;20126;-75
2021/07/05 02:41:06;;;;;;;1101.07;990.55;;;;;;;;;;4944152;28;20130;-75
2021/07/05 02:43:33;;;;;;;843.58;638.35;;;;;;;;;;4932389;29;20129;-76
2021/07/05 02:45:59;;;;;;;922.75;824.50;;;;;;;;;;4938271;28;20136;-75
2021/07/05 02:48:26;;;;;;;867.33;687.28;;;;;;;;;;4934150;29;20038;-76
2021/07/05 02:50:54;;;;;;;758.80;651.05;;;;;;;;;;4932857;28;20027;-77
2021/07/05 02:53:20;;;;;;;990.42;887.90;;;;;;;;;;4936627;28;20065;-76
2021/07/05 02:55:47;;;;;;;816.67;473.23;;;;;;;;;;4943812;29;20027;-76
2021/07/05 02:58:13;;;;;;;522.53;410.35;;;;;;;;;;4930406;28;20036;-76
2021/07/05 03:00:40;;;;;;;525.80;419.58;;;;;;;;;;4928852;29;20078;-76
2021/07/05 03:03:06;;;;;;;521.10;410.25;;;;;;;;;;4933386;29;20043;-76
2021/07/05 03:05:32;;;;;;;517.72;411.35;;;;;;;;;;4935883;29;20035;-76
2021/07/05 03:07:58;;;;;;;519.75;417.30;;;;;;;;;;4936912;29;20023;-78
2021/07/05 03:10:26;;;;;;;518.00;414.48;;;;;;;;;;4951419;28;20034;-77
2021/07/05 03:12:58;;;;;;;514.00;404.90;;;;;;;;;;4953623;28;20026;-76
2021/07/05 03:15:24;;;;;;;517.17;415.65;;;;;;;;;;4931013;29;20038;-76
2021/07/05 03:17:50;;;;;;;516.13;413.77;;;;;;;;;;4933517;29;20043;-76
2021/07/05 03:20:18;;;;;;;522.67;414.45;;;;;;;;;;4951487;28;20023;-76
2021/07/05 03:22:46;;;;;;;524.83;421.08;;;;;;;;;;4948171;28;20070;-76
2021/07/05 03:25:12;;;;;;;522.22;416.35;;;;;;;;;;4945169;29;20023;-76
2021/07/05 03:27:38;;;;;;;520.40;413.88;;;;;;;;;;4933124;29;20028;-78
2021/07/05 03:30:05;;;;;;;523.97;421.15;;;;;;;;;;4953118;28;20031;-77
2021/07/05 03:32:31;;;;;;;523.22;422.02;;;;;;;;;;4933065;29;20820;-78
2021/07/05 03:35:04;;;;;;;524.28;417.13;;;;;;;;;;4957440;28;20035;-80
2021/07/05 03:37:30;;;;;;;524.97;422.85;;;;;;;;;;4951725;28;20496;-78
2021/07/05 03:39:56;;;;;;;526.92;427.77;;;;;;;;;;4953166;28;20106;-81
2021/07/05 03:42:22;;;;;;;535.70;427.00;;;;;;;;;;4960686;28;20033;-80
2021/07/05 03:44:48;;;;;;;527.60;419.35;;;;;;;;;;4954062;28;20027;-80
2021/07/05 03:47:15;;;;;;;520.90;421.05;;;;;;;;;;4957427;28;20028;-81
2021/07/05 03:49:41;;;;;;;514.70;413.75;;;;;;;;;;4945556;29;20034;-78
2021/07/05 03:52:07;;;;;;;518.50;418.38;;;;;;;;;;4935650;29;20713;-81
2021/07/05 03:54:33;;;;;;;516.00;417.67;;;;;;;;;;4913435;29;20036;-82
2021/07/05 03:56:59;;;;;;;513.92;417.73;;;;;;;;;;4932311;29;20028;-83
2021/07/05 03:59:29;;;;;;;512.92;412.67;;;;;;;;;;4919155;29;20034;-83
2021/07/05 04:01:55;;;;;;;511.45;412.17;;;;;;;;;;4914281;29;20036;-79
2021/07/05 04:04:21;;;;;;;512.10;409.60;;;;;;;;;;4921412;29;20103;-82
2021/07/05 04:06:47;;;;;;;509.90;410.17;;;;;;;;;;4926554;29;20102;-80
2021/07/05 04:09:13;;;;;;;506.85;407.00;;;;;;;;;;4936561;29;20368;-81
2021/07/05 04:11:39;;;;;;;507.95;411.35;;;;;;;;;;4917850;29;20024;-81
2021/07/05 04:14:05;;;;;;;511.13;412.48;;;;;;;;;;4915477;29;20043;-81
2021/07/05 04:16:31;;;;;;;509.58;409.45;;;;;;;;;;4931484;29;20032;-83
2021/07/05 04:18:57;;;;;;;510.98;412.23;;;;;;;;;;4915094;29;20087;-82
2021/07/05 04:21:26;;;;;;;505.60;400.90;;;;;;;;;;4916655;29;20528;-81
2021/07/05 04:23:52;;;;;;;508.92;408.83;;;;;;;;;;4924554;29;20032;-80
2021/07/05 04:26:18;;;;;;;508.50;407.92;;;;;;;;;;4928944;29;20424;-81
2021/07/05 04:28:44;;;;;;;509.23;407.20;;;;;;;;;;4919452;29;20115;-81
2021/07/05 04:31:10;;;;;;;506.10;396.55;;;;;;;;;;4914113;29;20566;-79
2021/07/05 04:33:42;;;;;;;506.88;400.17;;;;;;;;;;4910547;29;20351;-77
2021/07/05 04:36:08;;;;;;;506.60;398.58;;;;;;;;;;4925986;29;20056;-75
2021/07/05 04:38:34;;;;;;;508.50;404.48;;;;;;;;;;4915402;29;20115;-75
2021/07/05 04:41:03;;;;;;;508.50;403.35;;;;;;;;;;4911002;29;20091;-75
2021/07/05 04:43:29;;;;;;;506.80;398.27;;;;;;;;;;4908394;29;20047;-76
2021/07/05 04:46:21;;;;;;;510.13;405.90;;;;;;;;;;4915581;29;20043;-76
2021/07/05 04:48:47;;;;;;;508.00;392.48;;;;;;;;;;4931793;29;20024;-77
2021/07/05 04:51:15;;;;;;;509.63;397.70;;;;;;;;;;4930026;29;20038;-78
2021/07/05 04:53:41;;;;;;;517.47;405.73;;;;;;;;;;4932057;29;20052;-79
2021/07/05 04:56:07;;;;;;;521.28;411.00;;;;;;;;;;4956071;28;20038;-78
2021/07/05 04:58:36;;;;;;;515.17;407.92;;;;;;;;;;4946081;28;20039;-77
2021/07/05 05:01:02;;;;;;;512.58;404.35;;;;;;;;;;4927341;29;20033;-78
2021/07/05 05:03:28;;;;;;;513.92;411.20;;;;;;;;;;4935105;29;20182;-78
2021/07/05 05:05:54;;;;;;;513.53;409.83;;;;;;;;;;4930474;29;20436;-77
2021/07/05 05:08:20;;;;;;;512.67;407.83;;;;;;;;;;4935983;28;20023;-77
2021/07/05 05:10:46;;;;;;;511.52;405.02;;;;;;;;;;4937693;29;20062;-78
2021/07/05 05:13:12;;;;;;;510.48;405.23;;;;;;;;;;4928631;29;20525;-78
2021/07/05 05:15:38;;;;;;;508.70;401.58;;;;;;;;;;4933204;28;20031;-80
2021/07/05 05:18:04;;;;;;;506.83;396.30;;;;;;;;;;4945973;28;20498;-80
2021/07/05 05:20:45;;;;;;;508.42;403.00;;;;;;;;;;4926379;29;20115;-79
2021/07/05 05:23:11;;;;;;;509.95;400.80;;;;;;;;;;4949968;29;20032;-79
2021/07/05 05:25:37;;;;;;;506.45;395.85;;;;;;;;;;4935134;29;20703;-79
2021/07/05 05:28:03;;;;;;;506.45;398.33;;;;;;;;;;4935047;29;20436;-78
2021/07/05 05:30:29;;;;;;;506.75;396.27;;;;;;;;;;4932065;29;20051;-77
2021/07/05 05:32:58;;;;;;;509.67;403.50;;;;;;;;;;4949276;28;20039;-76
2021/07/05 05:35:25;;;;;;;510.95;398.77;;;;;;;;;;4952338;29;20032;-76
2021/07/05 05:37:53;;;;;;;511.27;398.00;;;;;;;;;;4940743;29;20028;-75
2021/07/05 05:40:19;;;;;;;505.50;388.40;;;;;;;;;;4942390;28;20027;-75
2021/07/05 05:42:45;;;;;;;508.67;396.35;;;;;;;;;;4946859;28;20032;-74
2021/07/05 05:45:14;;;;;;;508.25;394.50;;;;;;;;;;4933674;29;20459;-74
2021/07/05 05:47:40;;;;;;;510.23;396.58;;;;;;;;;;4931315;29;20581;-74
2021/07/05 05:50:07;;;;;;;519.97;410.85;;;;;;;;;;4949777;28;20075;-74
2021/07/05 05:52:33;;;;;;;519.30;402.75;;;;;;;;;;4932328;29;20103;-74
2021/07/05 05:54:59;;;;;;;515.15;403.13;;;;;;;;;;4930561;28;20035;-74
2021/07/05 05:57:26;;;;;;;521.60;401.35;;;;;;;;;;4933199;29;20495;-74
2021/07/05 05:59:54;;;;;;;506.92;395.83;;;;;;;;;;4932650;28;20067;-73
2021/07/05 06:02:20;;;;;;;505.15;393.75;;;;;;;;;;4950276;28;20031;-73
2021/07/05 06:04:46;;;;;;;501.05;385.23;;;;;;;;;;4950096;29;20073;-73
2021/07/05 06:07:13;;;;;;;504.70;394.77;;;;;;;;;;4934307;29;20094;-73
2021/07/05 06:09:39;;;;;;;502.05;387.67;;;;;;;;;;4932159;28;20984;-74
2021/07/05 06:12:05;;;;;;;503.25;389.30;;;;;;;;;;4948077;29;20032;-74
2021/07/05 06:14:31;;;;;;;502.45;389.60;;;;;;;;;;4935331;29;20659;-74
2021/07/05 06:16:57;;;;;;;504.15;393.45;;;;;;;;;;4934713;29;20162;-74
2021/07/05 06:19:32;;;;;;;506.50;395.67;;;;;;;;;;4936733;29;20035;-74
2021/07/05 06:21:58;;;;;;;520.70;405.25;;;;;;;;;;4954878;28;20046;-74
2021/07/05 06:24:24;;;;;;;514.67;397.52;;;;;;;;;;4934462;29;20556;-74
2021/07/05 06:26:50;;;;;;;512.20;396.15;;;;;;;;;;4935833;29;20028;-74
2021/07/05 06:29:16;;;;;;;512.97;398.85;;;;;;;;;;4934488;29;20024;-75
2021/07/05 06:31:51;;;;;;;512.00;397.75;;;;;;;;;;4928269;29;20421;-75
2021/07/05 06:34:17;;;;;;;509.92;398.02;;;;;;;;;;4933274;29;20158;-74
2021/07/05 06:36:43;;;;;;;512.53;398.88;;;;;;;;;;4946134;29;20126;-75
2021/07/05 06:39:09;;;;;;;509.85;394.40;;;;;;;;;;4935756;29;20031;-74
2021/07/05 06:41:35;;;;;;;509.00;396.50;;;;;;;;;;4938898;29;20063;-77
2021/07/05 06:44:20;;;;;;;508.85;401.55;;;;;;;;;;4940125;29;20023;-75
2021/07/05 06:46:46;;;;;;;503.70;387.95;;;;;;;;;;4953499;28;20027;-76
2021/07/05 06:49:17;;;;;;;507.83;399.52;;;;;;;;;;4951107;28;20111;-78
2021/07/05 06:51:43;;;;;;;508.65;402.25;;;;;;;;;;4938420;29;20035;-77
2021/07/05 06:54:09;;;;;;;505.60;396.92;;;;;;;;;;4953926;28;20030;-76
2021/07/05 06:56:40;;;;;;;507.45;396.27;;;;;;;;;;4940379;29;20031;-77
2021/07/05 06:59:06;;;;;;;508.83;400.73;;;;;;;;;;4938186;29;20034;-77
2021/07/05 07:01:34;;;;;;;507.30;400.50;;;;;;;;;;4937946;29;20031;-77
2021/07/05 07:04:00;;;;;;;504.13;387.63;;;;;;;;;;4955480;29;20039;-79
2021/07/05 07:06:26;;;;;;;505.13;394.17;;;;;;;;;;4952714;28;20158;-78
2021/07/05 07:11:59;;;;;;;506.30;392.27;;;;;;;;;;4949641;29;20082;-80
2021/07/05 07:14:24;;;;;;;507.85;394.58;;;;;;;;;;4939650;29;20064;-79
2021/07/05 07:16:53;;;;;;;511.35;398.73;;;;;;;;;;4956437;29;20502;-80
2021/07/05 07:19:20;;;;;;;515.55;405.55;;;;;;;;;;4953377;29;20035;-78
2021/07/05 07:21:50;;;;;;;524.08;416.60;;;;;;;;;;4938950;29;20032;-79
2021/07/05 07:27:23;;;;;;;516.33;407.85;;;;;;;;;;4954692;29;20034;-77
2021/07/05 07:29:48;;;;;;;511.02;404.20;;;;;;;;;;4938740;29;20047;-79
2021/07/05 07:32:14;;;;;;;510.63;405.27;;;;;;;;;;4960045;28;20416;-79
2021/07/05 07:34:40;;;;;;;514.58;411.13;;;;;;;;;;4939205;29;20039;-79
2021/07/05 07:37:07;;;;;;;512.13;410.45;;;;;;;;;;4940188;29;20019;-77
2021/07/05 07:39:40;;;;;;;517.78;410.02;;;;;;;;;;4935792;29;20027;-77
2021/07/05 07:42:06;;;;;;;516.85;412.25;;;;;;;;;;4955419;29;20031;-78
2021/07/05 07:44:34;;;;;;;514.40;412.40;;;;;;;;;;4956441;29;20031;-77
2021/07/05 07:47:00;;;;;;;511.58;407.05;;;;;;;;;;4936596;29;20070;-79
2021/07/05 07:49:27;;;;;;;508.73;411.42;;;;;;;;;;4937391;29;20038;-79
2021/07/05 07:51:53;;;;;;;508.35;412.23;;;;;;;;;;4954180;29;20047;-78
2021/07/05 07:54:19;;;;;;;506.33;407.25;;;;;;;;;;4928932;29;20035;-79
2021/07/05 07:56:45;;;;;;;507.35;410.20;;;;;;;;;;4931292;29;20764;-78
2021/07/05 07:59:12;;;;;;;507.05;406.95;;;;;;;;;;4935912;29;20483;-78
2021/07/05 08:01:56;;;;;;;509.35;413.15;;;;;;;;;;4953418;29;20030;-80
2021/07/05 08:04:22;;;;;;;506.73;402.05;;;;;;;;;;4953997;29;20034;-77
2021/07/05 08:06:48;;;;;;;511.38;414.00;;;;;;;;;;4938725;28;20375;-78
2021/07/05 08:09:14;;;;;;;509.00;416.17;;;;;;;;;;4947926;29;20042;-79
2021/07/05 08:11:40;;;;;;;507.52;415.83;;;;;;;;;;4934095;29;20031;-77
2021/07/05 08:14:37;;;;;;;510.55;420.23;;;;;;;;;;4926107;29;20678;-78
2021/07/05 08:17:03;;;;;;;509.63;416.35;;;;;;;;;;4926986;29;20027;-78
2021/07/05 08:19:29;;;;;;;510.13;419.73;;;;;;;;;;4951985;29;20043;-78
2021/07/05 08:21:55;;;;;;;514.10;426.55;;;;;;;;;;4938016;29;20062;-80
2021/07/05 08:24:21;;;;;;;509.05;414.67;;;;;;;;;;4937811;29;20723;-75
2021/07/05 08:30:13;;;;;;;511.13;423.70;;;;;;;;;;4937499;29;20115;-79
2021/07/05 08:32:39;;;;;;;511.80;420.02;;;;;;;;;;4924991;29;20038;-78
2021/07/05 08:35:06;;;;;;;514.40;430.20;;;;;;;;;;4955490;29;20094;-77
2021/07/05 08:37:32;;;;;;;516.67;436.40;;;;;;;;;;4947564;28;20031;-78
2021/07/05 08:39:58;;;;;;;516.45;432.90;;;;;;;;;;4931050;29;20069;-77
2021/07/05 08:42:30;;;;;;;519.05;439.48;;;;;;;;;;4936864;29;20035;-77
2021/07/05 08:44:56;;;;;;;517.40;437.67;;;;;;;;;;4933277;29;20119;-78
2021/07/05 08:47:23;;;;;;;519.92;443.17;;;;;;;;;;4953381;29;20046;-78
2021/07/05 08:49:49;;;;;;;520.42;446.20;;;;;;;;;;4930349;29;20209;-77
2021/07/05 08:52:15;;;;;;;526.97;454.25;;;;;;;;;;4935534;29;20138;-79
2021/07/05 08:54:43;;;;;;;588.63;516.35;;;;;;;;;;4936805;29;20035;-77
2021/07/05 08:57:26;;;;;;;529.35;457.38;;;;;;;;;;4933083;29;20039;-76
2021/07/05 08:59:53;;;;;;;519.33;444.92;;;;;;;;;;4928982;29;20027;-78
2021/07/05 09:02:22;;;;;;;519.50;452.73;;;;;;;;;;4954444;28;20027;-75
2021/07/05 09:04:51;;;;;;;516.15;450.25;;;;;;;;;;4953377;28;20034;-76
2021/07/05 09:07:17;;;;;;;516.57;451.53;;;;;;;;;;4932091;29;20023;-78
2021/07/05 09:10:16;;;;;;;517.15;451.05;;;;;;;;;;4934843;29;20027;-76
2021/07/05 09:12:42;;;;;;;526.42;447.05;;;;;;;;;;4894177;29;20028;-77
2021/07/05 09:15:14;;;;;;;513.03;444.13;;;;;;;;;;4937885;29;20178;-83
2021/07/05 09:17:42;;;;;;;513.40;447.77;;;;;;;;;;4940111;29;20027;-76
2021/07/05 09:20:14;;;;;;;515.42;452.63;;;;;;;;;;4934658;29;20028;-76
2021/07/05 09:22:58;;;;;;;514.70;450.55;;;;;;;;;;4948059;28;20488;-75
2021/07/05 09:25:36;;;;;;;515.72;453.65;;;;;;;;;;4933169;29;20700;-76
2021/07/05 09:28:03;;;;;;;515.08;453.10;;;;;;;;;;4933733;29;20054;-78
2021/07/05 09:30:37;;;;;;;516.08;453.50;;;;;;;;;;4934808;29;20031;-80
2021/07/05 09:33:18;;;;;;;521.17;456.08;;;;;;;;;;4936264;29;20031;-79
2021/07/05 09:35:47;;;;;;;;;;;;;;;;;;4935610;29;20111;-86
2021/07/05 09:38:13;;;;;;;523.50;465.95;;;;;;;;;;4946989;29;19989;-79
2021/07/05 09:40:39;;;;;;;547.50;489.30;;;;;;;;;;4936708;29;20039;-79
2021/07/05 09:43:22;;;;;;;554.97;497.10;;;;;;;;;;4949031;28;20023;-79
2021/07/05 09:45:55;;;;;;;560.78;502.73;;;;;;;;;;4954729;28;20475;-76
2021/07/05 09:48:26;;;;;;;562.00;503.80;;;;;;;;;;4945565;29;20024;-79
2021/07/05 09:50:51;;;;;;;;;;;;;;;;;;4948579;28;20020;-81
2021/07/05 09:53:31;;;;;;;556.17;497.30;;;;;;;;;;4953709;28;20295;-80
2021/07/05 09:56:16;;;;;;;567.53;509.30;;;;;;;;;;4957258;29;20031;-76
2021/07/05 09:58:43;;;;;;;583.92;525.15;;;;;;;;;;4942557;29;20040;-77
2021/07/05 10:01:09;;;;;;;597.05;538.45;;;;;;;;;;4953670;28;20127;-77
2021/07/05 10:03:38;;;;;;;603.53;544.70;;;;;;;;;;4942349;29;20126;-78
2021/07/05 10:09:09;;;;;;;585.72;527.42;;;;;;;;;;4957022;28;20081;-77
2021/07/05 10:11:35;;;;;;;582.53;524.03;;;;;;;;;;4940923;29;20035;-78
2021/07/05 10:14:09;;;;;;;577.92;519.70;;;;;;;;;;4954724;29;20027;-80
2021/07/05 10:16:35;;;;;;;572.55;514.15;;;;;;;;;;4925553;29;20027;-80
2021/07/05 10:19:07;;;;;;;554.70;496.92;;;;;;;;;;4941326;29;20038;-82
2021/07/05 10:21:34;;;;;;;560.20;502.02;;;;;;;;;;4959045;29;20529;-80
2021/07/05 10:24:00;;;;;;;552.10;494.15;;;;;;;;;;4941178;29;20471;-79
2021/07/05 10:26:26;;;;;;;553.60;495.52;;;;;;;;;;4940984;29;20024;-80
2021/07/05 10:28:53;;;;;;;564.10;505.58;;;;;;;;;;4939341;29;20392;-81
2021/07/05 10:31:20;;;;;;;559.28;500.65;;;;;;;;;;4940814;29;20023;-80
2021/07/05 10:33:46;;;;;;;570.50;511.33;;;;;;;;;;4940688;29;20394;-82
2021/07/05 10:36:12;;;;;;;587.22;525.33;;;;;;;;;;4940625;29;20029;-80
2021/07/05 10:38:53;;;;;;;560.78;501.60;;;;;;;;;;4940725;29;20063;-83
2021/07/05 10:41:38;;;;;;;546.40;488.08;;;;;;;;;;4938625;29;20082;-80
2021/07/05 10:44:05;;;;;;;545.47;487.17;;;;;;;;;;4940250;29;20027;-79
2021/07/05 10:46:52;;;;;;;539.40;481.05;;;;;;;;;;4957199;29;20102;-81
2021/07/05 10:49:30;;;;;;;529.25;471.45;;;;;;;;;;4943925;29;20035;-81
2021/07/05 10:52:01;;;;;;;532.35;474.27;;;;;;;;;;4940599;29;20516;-80
2021/07/05 10:54:46;;;;;;;532.85;474.92;;;;;;;;;;4938619;29;20040;-80
2021/07/05 10:57:14;;;;;;;526.05;468.33;;;;;;;;;;4937749;29;20035;-81
2021/07/05 10:59:41;;;;;;;526.90;469.13;;;;;;;;;;4938359;29;20027;-81
2021/07/05 11:08:42;;;;;;;521.20;462.45;;;;;;;;;;4919617;29;20035;-85
2021/07/05 11:11:11;;;;;;;522.10;463.60;;;;;;;;;;4925350;29;20031;-81
2021/07/05 11:13:40;;;;;;;534.15;475.90;;;;;;;;;;4921144;29;20035;-81
2021/07/05 11:16:07;;;;;;;533.60;473.58;;;;;;;;;;4920525;29;20044;-82
2021/07/05 11:18:48;;;;;;;531.10;473.50;;;;;;;;;;4921314;29;20395;-85
2021/07/05 11:21:17;;;;;;;532.95;475.33;;;;;;;;;;4921620;29;20031;-82
2021/07/05 11:23:57;;;;;;;534.70;477.02;;;;;;;;;;4918202;29;20032;-88
2021/07/05 11:26:24;;;;;;;535.90;478.08;;;;;;;;;;4913577;29;20115;-81
2021/07/05 11:29:08;;;;;;;541.30;482.90;;;;;;;;;;4917527;29;20024;-81
2021/07/05 11:31:47;;;;;;;534.80;477.15;;;;;;;;;;4933025;29;20635;-85
2021/07/05 11:34:35;;;;;;;551.35;493.33;;;;;;;;;;4927538;29;20364;-82
2021/07/05 11:37:13;;;;;;;558.35;500.27;;;;;;;;;;4920213;29;20055;-84
2021/07/05 11:39:47;;;;;;;565.78;507.63;;;;;;;;;;4934346;29;20035;-82
2021/07/05 11:42:13;;;;;;;611.75;550.42;;;;;;;;;;4916730;29;20031;-86
2021/07/05 11:44:58;;;;;;;614.80;554.75;;;;;;;;;;4901911;29;20036;-82
2021/07/05 11:47:37;;;;;;;609.10;549.75;;;;;;;;;;4902036;29;20047;-81
2021/07/05 11:50:20;;;;;;;613.88;554.38;;;;;;;;;;4908061;29;20119;-80
2021/07/05 11:52:56;;;;;;;605.78;546.42;;;;;;;;;;4924699;29;20404;-80
2021/07/05 11:55:43;;;;;;;588.30;529.70;;;;;;;;;;4920632;29;20038;-82
2021/07/05 11:58:09;;;;;;;578.70;520.13;;;;;;;;;;4927118;29;20027;-81
2021/07/05 12:00:36;;;;;;;578.13;519.55;;;;;;;;;;4956752;28;20031;-88
2021/07/05 12:03:10;;;;;;;577.92;519.17;;;;;;;;;;4939547;29;20498;-81
2021/07/05 12:05:36;;;;;;;565.45;506.80;;;;;;;;;;4940179;29;20023;-87
2021/07/05 12:08:14;;;;;;;566.75;507.42;;;;;;;;;;4956685;29;20036;-81
2021/07/05 12:10:42;;;;;;;550.58;491.98;;;;;;;;;;4938532;29;20118;-88
2021/07/05 12:13:12;;;;;;;541.58;483.35;;;;;;;;;;4939354;29;20036;-87
2021/07/05 12:15:38;;;;;;;537.03;479.23;;;;;;;;;;4936811;29;20387;-85
2021/07/05 12:18:04;;;;;;;530.85;472.08;;;;;;;;;;4954352;28;20031;-81
2021/07/05 12:20:49;;;;;;;528.08;470.52;;;;;;;;;;4939302;29;20035;-81
2021/07/05 12:23:15;;;;;;;531.38;473.45;;;;;;;;;;4949663;29;20024;-81
2021/07/05 12:25:41;;;;;;;527.70;470.17;;;;;;;;;;4939516;29;20038;-85
2021/07/05 12:28:15;;;;;;;530.03;472.27;;;;;;;;;;4939262;29;20037;-84
2021/07/05 12:30:48;;;;;;;536.75;478.45;;;;;;;;;;4940488;29;20082;-82
2021/07/05 12:36:19;;;;;;;542.92;482.10;;;;;;;;;;4958044;29;20022;-80
2021/07/05 12:39:03;;;;;;;540.55;481.77;;;;;;;;;;4955971;29;20031;-81
2021/07/05 12:41:30;;;;;;;535.67;477.33;;;;;;;;;;4937744;29;20015;-79
2021/07/05 12:44:20;;;;;;;539.35;481.17;;;;;;;;;;4935813;29;20491;-81
2021/07/05 12:46:46;;;;;;;;;;;;;;;;;;4936980;29;20532;-85
2021/07/05 12:49:12;;;;;;;519.65;462.13;;;;;;;;;;4954395;29;19948;-80
2021/07/05 12:51:38;;;;;;;532.72;475.17;;;;;;;;;;4939041;29;20058;-83
2021/07/05 12:54:17;;;;;;;523.60;466.38;;;;;;;;;;4955828;29;20427;-80
2021/07/05 12:57:19;;;;;;;530.42;473.10;;;;;;;;;;4938542;29;20027;-84
2021/07/05 13:00:01;;;;;;;530.30;472.88;;;;;;;;;;4878058;29;20505;-79
2021/07/05 13:02:31;;;;;;;532.20;474.80;;;;;;;;;;4931540;29;20036;-84
2021/07/05 13:05:08;;;;;;;532.92;475.55;;;;;;;;;;4919730;29;20027;-84
2021/07/05 13:07:40;;;;;;;548.55;490.70;;;;;;;;;;4936964;29;20138;-85
2021/07/05 13:10:11;;;;;;;554.92;497.05;;;;;;;;;;4917955;29;20423;-86
2021/07/05 13:12:37;;;;;;;568.53;510.50;;;;;;;;;;4924116;29;20435;-81
2021/07/05 13:15:16;;;;;;;583.22;524.50;;;;;;;;;;4916453;29;20032;-81
2021/07/05 13:18:09;;;;;;;582.20;524.10;;;;;;;;;;4919392;29;20028;-80
2021/07/05 13:20:36;;;;;;;584.13;526.10;;;;;;;;;;4935382;29;20036;-83
2021/07/05 13:23:02;;;;;;;591.40;532.95;;;;;;;;;;4936106;29;20032;-82
2021/07/05 13:25:28;;;;;;;581.05;523.05;;;;;;;;;;4936273;29;20042;-83
2021/07/05 13:27:54;;;;;;;560.22;502.52;;;;;;;;;;4915994;29;20028;-86
2021/07/05 13:30:22;;;;;;;559.65;501.20;;;;;;;;;;4916155;29;20472;-80
2021/07/05 13:32:50;;;;;;;551.60;493.58;;;;;;;;;;4929676;29;20028;-83
2021/07/05 13:35:16;;;;;;;555.83;496.90;;;;;;;;;;4918858;29;20036;-80
2021/07/05 13:37:46;;;;;;;555.67;496.92;;;;;;;;;;4918790;29;20083;-83
2021/07/05 13:43:17;;;;;;;529.80;472.17;;;;;;;;;;4927707;29;20066;-79
2021/07/05 13:45:44;;;;;;;525.40;468.08;;;;;;;;;;4935882;29;20024;-84
2021/07/05 13:48:12;;;;;;;523.42;466.10;;;;;;;;;;4918547;29;20225;-80
2021/07/05 13:50:39;;;;;;;529.33;471.95;;;;;;;;;;4918379;29;20023;-80
2021/07/05 13:53:17;;;;;;;528.55;471.10;;;;;;;;;;4944413;29;20043;-80
2021/07/05 13:55:59;;;;;;;530.78;473.40;;;;;;;;;;4935780;29;20028;-82
2021/07/05 13:58:29;;;;;;;521.50;464.40;;;;;;;;;;4945966;29;20471;-80
2021/07/05 14:04:05;;;;;;;530.03;472.60;;;;;;;;;;4954944;29;20343;-81
2021/07/05 14:06:31;;;;;;;545.03;487.42;;;;;;;;;;4936839;29;20520;-82
2021/07/05 14:08:57;;;;;;;541.72;484.35;;;;;;;;;;4954587;29;20031;-80
2021/07/05 14:11:24;;;;;;;547.35;489.77;;;;;;;;;;4936578;29;20523;-82
2021/07/05 14:13:52;;;;;;;550.60;492.08;;;;;;;;;;4937287;29;20027;-79
2021/07/05 14:16:21;;;;;;;542.83;485.50;;;;;;;;;;4954597;29;20023;-81
2021/07/05 14:18:47;;;;;;;532.55;475.40;;;;;;;;;;4937311;29;20028;-84
2021/07/05 14:21:22;;;;;;;537.00;479.40;;;;;;;;;;4937138;29;20038;-80
2021/07/05 14:23:48;;;;;;;535.25;477.55;;;;;;;;;;4937271;29;20027;-81
2021/07/05 14:26:14;;;;;;;527.40;469.80;;;;;;;;;;4937371;29;20019;-82
2021/07/05 14:28:46;;;;;;;530.85;472.95;;;;;;;;;;4937343;29;20518;-81
2021/07/05 14:31:12;;;;;;;527.83;469.85;;;;;;;;;;4937525;29;20035;-81
2021/07/05 14:33:38;;;;;;;535.63;477.20;;;;;;;;;;4937009;29;20058;-81